sensor_id;sensor_type;location;lat;lon;timestamp;P1;durP1;ratioP1;P2;durP2;ratioP2
26080;SDS011;13991;51.174;4.438;2024-03-08T00:02:07;80.20;;;26.00;;
26080;SDS011;13991;51.174;4.438;2024-03-08T00:04:32;88.57;;;28.30;;
26080;SDS011;13991;51.174;4.438;2024-03-08T00:06:58;78.17;;;26.87;;
26080;SDS011;13991;51.174;4.438;2024-03-08T00:09:24;72.43;;;26.00;;
26080;SDS011;13991;51.174;4.438;2024-03-08T00:11:52;71.20;;;26.60;;
26080;SDS011;13991;51.174;4.438;2024-03-08T00:14:17;73.83;;;25.87;;
26080;SDS011;13991;51.174;4.438;2024-03-08T00:16:43;83.27;;;27.50;;
26080;SDS011;13991;51.174;4.438;2024-03-08T00:19:09;71.00;;;26.83;;
26080;SDS011;13991;51.174;4.438;2024-03-08T00:21:35;78.20;;;25.93;;
26080;SDS011;13991;51.174;4.438;2024-03-08T00:24:01;68.43;;;25.10;;
26080;SDS011;13991;51.174;4.438;2024-03-08T00:26:27;72.13;;;25.33;;
26080;SDS011;13991;51.174;4.438;2024-03-08T00:28:53;76.50;;;25.03;;
26080;SDS011;13991;51.174;4.438;2024-03-08T00:31:19;81.27;;;25.40;;
26080;SDS011;13991;51.174;4.438;2024-03-08T00:33:45;75.70;;;25.87;;
26080;SDS011;13991;51.174;4.438;2024-03-08T00:36:11;74.13;;;25.87;;
26080;SDS011;13991;51.174;4.438;2024-03-08T00:38:37;75.23;;;28.07;;
26080;SDS011;13991;51.174;4.438;2024-03-08T00:41:02;79.03;;;24.60;;
26080;SDS011;13991;51.174;4.438;2024-03-08T00:43:28;70.87;;;23.90;;
26080;SDS011;13991;51.174;4.438;2024-03-08T00:45:57;72.77;;;25.30;;
26080;SDS011;13991;51.174;4.438;2024-03-08T00:48:23;76.87;;;26.37;;
26080;SDS011;13991;51.174;4.438;2024-03-08T00:50:49;68.87;;;25.47;;
26080;SDS011;13991;51.174;4.438;2024-03-08T00:53:14;68.53;;;27.17;;
26080;SDS011;13991;51.174;4.438;2024-03-08T00:55:40;72.83;;;26.07;;
26080;SDS011;13991;51.174;4.438;2024-03-08T00:58:06;75.20;;;25.93;;
26080;SDS011;13991;51.174;4.438;2024-03-08T01:00:33;67.10;;;24.00;;
26080;SDS011;13991;51.174;4.438;2024-03-08T01:02:59;67.77;;;23.97;;
26080;SDS011;13991;51.174;4.438;2024-03-08T01:05:25;72.03;;;25.47;;
26080;SDS011;13991;51.174;4.438;2024-03-08T01:07:50;62.30;;;24.57;;
26080;SDS011;13991;51.174;4.438;2024-03-08T01:10:16;70.57;;;25.70;;
26080;SDS011;13991;51.174;4.438;2024-03-08T01:12:42;70.90;;;25.47;;
26080;SDS011;13991;51.174;4.438;2024-03-08T01:15:11;64.17;;;24.90;;
26080;SDS011;13991;51.174;4.438;2024-03-08T01:17:36;69.17;;;24.10;;
26080;SDS011;13991;51.174;4.438;2024-03-08T01:20:03;64.83;;;22.43;;
26080;SDS011;13991;51.174;4.438;2024-03-08T01:22:29;66.60;;;24.03;;
26080;SDS011;13991;51.174;4.438;2024-03-08T01:24:55;65.73;;;24.67;;
26080;SDS011;13991;51.174;4.438;2024-03-08T01:27:21;64.50;;;23.97;;
26080;SDS011;13991;51.174;4.438;2024-03-08T01:29:47;58.97;;;23.60;;
26080;SDS011;13991;51.174;4.438;2024-03-08T01:32:13;60.73;;;24.87;;
26080;SDS011;13991;51.174;4.438;2024-03-08T01:34:39;63.57;;;23.93;;
26080;SDS011;13991;51.174;4.438;2024-03-08T01:37:05;68.73;;;24.37;;
26080;SDS011;13991;51.174;4.438;2024-03-08T01:39:31;73.03;;;24.63;;
26080;SDS011;13991;51.174;4.438;2024-03-08T01:41:57;63.20;;;23.60;;
26080;SDS011;13991;51.174;4.438;2024-03-08T01:44:23;57.30;;;22.37;;
26080;SDS011;13991;51.174;4.438;2024-03-08T01:46:49;59.27;;;24.77;;
26080;SDS011;13991;51.174;4.438;2024-03-08T01:49:17;55.20;;;22.87;;
26080;SDS011;13991;51.174;4.438;2024-03-08T01:51:45;64.53;;;24.00;;
26080;SDS011;13991;51.174;4.438;2024-03-08T01:54:12;67.50;;;24.13;;
26080;SDS011;13991;51.174;4.438;2024-03-08T01:56:40;60.10;;;23.17;;
26080;SDS011;13991;51.174;4.438;2024-03-08T01:59:06;53.13;;;21.60;;
26080;SDS011;13991;51.174;4.438;2024-03-08T02:01:33;54.40;;;23.03;;
26080;SDS011;13991;51.174;4.438;2024-03-08T02:04:02;60.87;;;23.77;;
26080;SDS011;13991;51.174;4.438;2024-03-08T02:06:31;61.37;;;23.07;;
26080;SDS011;13991;51.174;4.438;2024-03-08T02:08:56;61.27;;;23.47;;
26080;SDS011;13991;51.174;4.438;2024-03-08T02:11:22;59.10;;;23.00;;
26080;SDS011;13991;51.174;4.438;2024-03-08T02:13:48;49.03;;;22.03;;
26080;SDS011;13991;51.174;4.438;2024-03-08T02:16:19;48.17;;;21.50;;
26080;SDS011;13991;51.174;4.438;2024-03-08T02:18:46;53.80;;;21.27;;
26080;SDS011;13991;51.174;4.438;2024-03-08T02:21:12;58.50;;;22.57;;
26080;SDS011;13991;51.174;4.438;2024-03-08T02:23:38;57.47;;;23.17;;
26080;SDS011;13991;51.174;4.438;2024-03-08T02:26:05;47.77;;;21.97;;
26080;SDS011;13991;51.174;4.438;2024-03-08T02:28:32;55.00;;;22.30;;
26080;SDS011;13991;51.174;4.438;2024-03-08T02:30:59;52.27;;;21.97;;
26080;SDS011;13991;51.174;4.438;2024-03-08T02:33:27;57.97;;;21.77;;
26080;SDS011;13991;51.174;4.438;2024-03-08T02:35:53;49.53;;;22.10;;
26080;SDS011;13991;51.174;4.438;2024-03-08T02:38:21;63.70;;;21.97;;
26080;SDS011;13991;51.174;4.438;2024-03-08T02:40:50;49.90;;;22.17;;
26080;SDS011;13991;51.174;4.438;2024-03-08T02:43:17;52.50;;;20.63;;
26080;SDS011;13991;51.174;4.438;2024-03-08T02:45:44;52.80;;;21.57;;
26080;SDS011;13991;51.174;4.438;2024-03-08T02:48:10;52.37;;;22.67;;
26080;SDS011;13991;51.174;4.438;2024-03-08T02:50:37;60.33;;;22.17;;
26080;SDS011;13991;51.174;4.438;2024-03-08T02:53:05;59.03;;;21.87;;
26080;SDS011;13991;51.174;4.438;2024-03-08T02:55:31;50.33;;;20.47;;
26080;SDS011;13991;51.174;4.438;2024-03-08T02:58:00;50.30;;;21.20;;
26080;SDS011;13991;51.174;4.438;2024-03-08T03:00:28;49.43;;;21.67;;
26080;SDS011;13991;51.174;4.438;2024-03-08T03:02:55;50.77;;;21.17;;
26080;SDS011;13991;51.174;4.438;2024-03-08T03:05:22;54.00;;;21.23;;
26080;SDS011;13991;51.174;4.438;2024-03-08T03:07:48;52.80;;;21.27;;
26080;SDS011;13991;51.174;4.438;2024-03-08T03:10:18;42.00;;;19.67;;
26080;SDS011;13991;51.174;4.438;2024-03-08T03:12:44;53.87;;;22.60;;
26080;SDS011;13991;51.174;4.438;2024-03-08T03:15:19;53.97;;;20.87;;
26080;SDS011;13991;51.174;4.438;2024-03-08T03:17:49;55.67;;;22.27;;
26080;SDS011;13991;51.174;4.438;2024-03-08T03:20:16;45.93;;;21.50;;
26080;SDS011;13991;51.174;4.438;2024-03-08T03:22:48;48.47;;;21.73;;
26080;SDS011;13991;51.174;4.438;2024-03-08T03:25:20;49.63;;;20.93;;
26080;SDS011;13991;51.174;4.438;2024-03-08T03:28:00;46.97;;;20.73;;
26080;SDS011;13991;51.174;4.438;2024-03-08T03:30:29;47.10;;;20.17;;
26080;SDS011;13991;51.174;4.438;2024-03-08T03:32:58;55.97;;;21.97;;
26080;SDS011;13991;51.174;4.438;2024-03-08T03:35:26;46.47;;;20.53;;
26080;SDS011;13991;51.174;4.438;2024-03-08T03:37:52;53.03;;;20.57;;
26080;SDS011;13991;51.174;4.438;2024-03-08T03:40:31;49.40;;;20.53;;
26080;SDS011;13991;51.174;4.438;2024-03-08T03:43:01;52.67;;;23.63;;
26080;SDS011;13991;51.174;4.438;2024-03-08T03:45:28;50.67;;;22.23;;
26080;SDS011;13991;51.174;4.438;2024-03-08T03:47:54;51.77;;;21.13;;
26080;SDS011;13991;51.174;4.438;2024-03-08T03:50:20;57.07;;;21.17;;
26080;SDS011;13991;51.174;4.438;2024-03-08T03:52:47;46.10;;;19.80;;
26080;SDS011;13991;51.174;4.438;2024-03-08T03:55:13;39.97;;;19.87;;
26080;SDS011;13991;51.174;4.438;2024-03-08T03:57:40;45.67;;;21.13;;
26080;SDS011;13991;51.174;4.438;2024-03-08T04:00:10;53.37;;;19.97;;
26080;SDS011;13991;51.174;4.438;2024-03-08T04:02:37;57.60;;;21.47;;
26080;SDS011;13991;51.174;4.438;2024-03-08T04:05:04;45.13;;;20.23;;
26080;SDS011;13991;51.174;4.438;2024-03-08T04:07:31;45.03;;;19.40;;
26080;SDS011;13991;51.174;4.438;2024-03-08T04:09:56;44.27;;;20.47;;
26080;SDS011;13991;51.174;4.438;2024-03-08T04:12:22;45.97;;;20.17;;
26080;SDS011;13991;51.174;4.438;2024-03-08T04:14:48;48.17;;;21.77;;
26080;SDS011;13991;51.174;4.438;2024-03-08T04:17:13;49.00;;;19.43;;
26080;SDS011;13991;51.174;4.438;2024-03-08T04:19:39;48.93;;;20.23;;
26080;SDS011;13991;51.174;4.438;2024-03-08T04:22:05;48.97;;;21.30;;
26080;SDS011;13991;51.174;4.438;2024-03-08T04:24:32;49.03;;;20.83;;
26080;SDS011;13991;51.174;4.438;2024-03-08T04:26:58;48.83;;;20.20;;
26080;SDS011;13991;51.174;4.438;2024-03-08T04:29:24;49.60;;;21.40;;
26080;SDS011;13991;51.174;4.438;2024-03-08T04:31:50;52.17;;;20.47;;
26080;SDS011;13991;51.174;4.438;2024-03-08T04:34:19;47.90;;;21.57;;
26080;SDS011;13991;51.174;4.438;2024-03-08T04:36:46;49.00;;;20.53;;
26080;SDS011;13991;51.174;4.438;2024-03-08T04:39:13;47.17;;;20.30;;
26080;SDS011;13991;51.174;4.438;2024-03-08T04:41:39;54.23;;;21.97;;
26080;SDS011;13991;51.174;4.438;2024-03-08T04:44:05;52.23;;;21.00;;
26080;SDS011;13991;51.174;4.438;2024-03-08T04:46:31;51.20;;;20.53;;
26080;SDS011;13991;51.174;4.438;2024-03-08T04:48:56;47.70;;;20.77;;
26080;SDS011;13991;51.174;4.438;2024-03-08T04:51:24;49.13;;;21.37;;
26080;SDS011;13991;51.174;4.438;2024-03-08T04:53:50;45.63;;;19.43;;
26080;SDS011;13991;51.174;4.438;2024-03-08T04:56:16;49.07;;;21.27;;
26080;SDS011;13991;51.174;4.438;2024-03-08T04:58:44;45.07;;;20.10;;
26080;SDS011;13991;51.174;4.438;2024-03-08T05:01:11;44.83;;;19.40;;
26080;SDS011;13991;51.174;4.438;2024-03-08T05:03:37;44.40;;;20.30;;
26080;SDS011;13991;51.174;4.438;2024-03-08T05:06:04;53.57;;;21.27;;
26080;SDS011;13991;51.174;4.438;2024-03-08T05:08:30;45.87;;;21.30;;
26080;SDS011;13991;51.174;4.438;2024-03-08T05:10:55;48.20;;;20.97;;
26080;SDS011;13991;51.174;4.438;2024-03-08T05:13:22;42.73;;;20.07;;
26080;SDS011;13991;51.174;4.438;2024-03-08T05:15:48;48.03;;;21.57;;
26080;SDS011;13991;51.174;4.438;2024-03-08T05:18:15;54.37;;;20.90;;
26080;SDS011;13991;51.174;4.438;2024-03-08T05:20:41;54.77;;;20.53;;
26080;SDS011;13991;51.174;4.438;2024-03-08T05:23:07;56.80;;;22.50;;
26080;SDS011;13991;51.174;4.438;2024-03-08T05:25:33;56.53;;;21.10;;
26080;SDS011;13991;51.174;4.438;2024-03-08T05:27:59;41.13;;;20.30;;
26080;SDS011;13991;51.174;4.438;2024-03-08T05:30:24;45.30;;;20.23;;
26080;SDS011;13991;51.174;4.438;2024-03-08T05:32:50;44.73;;;21.37;;
26080;SDS011;13991;51.174;4.438;2024-03-08T05:35:16;47.10;;;21.77;;
26080;SDS011;13991;51.174;4.438;2024-03-08T05:37:42;50.17;;;20.67;;
26080;SDS011;13991;51.174;4.438;2024-03-08T05:40:08;51.50;;;21.90;;
26080;SDS011;13991;51.174;4.438;2024-03-08T05:42:37;51.23;;;20.47;;
26080;SDS011;13991;51.174;4.438;2024-03-08T05:45:03;44.77;;;20.60;;
26080;SDS011;13991;51.174;4.438;2024-03-08T05:47:31;44.77;;;20.33;;
26080;SDS011;13991;51.174;4.438;2024-03-08T05:49:58;50.70;;;20.37;;
26080;SDS011;13991;51.174;4.438;2024-03-08T05:52:25;56.73;;;21.47;;
26080;SDS011;13991;51.174;4.438;2024-03-08T05:54:51;53.63;;;21.80;;
26080;SDS011;13991;51.174;4.438;2024-03-08T05:57:17;50.93;;;22.20;;
26080;SDS011;13991;51.174;4.438;2024-03-08T05:59:42;58.80;;;21.90;;
26080;SDS011;13991;51.174;4.438;2024-03-08T06:02:08;51.63;;;21.07;;
26080;SDS011;13991;51.174;4.438;2024-03-08T06:04:34;52.53;;;21.03;;
26080;SDS011;13991;51.174;4.438;2024-03-08T06:06:59;60.00;;;22.67;;
26080;SDS011;13991;51.174;4.438;2024-03-08T06:09:28;47.33;;;20.93;;
26080;SDS011;13991;51.174;4.438;2024-03-08T06:11:54;60.87;;;22.37;;
26080;SDS011;13991;51.174;4.438;2024-03-08T06:14:20;55.40;;;22.77;;
26080;SDS011;13991;51.174;4.438;2024-03-08T06:16:46;51.73;;;21.43;;
26080;SDS011;13991;51.174;4.438;2024-03-08T06:19:12;57.57;;;21.93;;
26080;SDS011;13991;51.174;4.438;2024-03-08T06:21:38;49.90;;;21.63;;
26080;SDS011;13991;51.174;4.438;2024-03-08T06:24:04;49.63;;;21.73;;
26080;SDS011;13991;51.174;4.438;2024-03-08T06:26:30;51.97;;;22.00;;
26080;SDS011;13991;51.174;4.438;2024-03-08T06:28:56;47.50;;;22.20;;
26080;SDS011;13991;51.174;4.438;2024-03-08T06:31:22;49.73;;;20.20;;
26080;SDS011;13991;51.174;4.438;2024-03-08T06:33:48;56.83;;;23.47;;
26080;SDS011;13991;51.174;4.438;2024-03-08T06:36:19;53.57;;;23.50;;
26080;SDS011;13991;51.174;4.438;2024-03-08T06:38:46;55.20;;;22.37;;
26080;SDS011;13991;51.174;4.438;2024-03-08T06:41:13;49.77;;;20.70;;
26080;SDS011;13991;51.174;4.438;2024-03-08T06:43:44;52.67;;;22.20;;
26080;SDS011;13991;51.174;4.438;2024-03-08T06:46:11;56.03;;;22.47;;
26080;SDS011;13991;51.174;4.438;2024-03-08T06:48:38;50.63;;;21.97;;
26080;SDS011;13991;51.174;4.438;2024-03-08T06:51:07;51.73;;;22.07;;
26080;SDS011;13991;51.174;4.438;2024-03-08T06:53:32;51.67;;;22.70;;
26080;SDS011;13991;51.174;4.438;2024-03-08T06:56:00;53.47;;;23.37;;
26080;SDS011;13991;51.174;4.438;2024-03-08T06:58:26;59.40;;;22.10;;
26080;SDS011;13991;51.174;4.438;2024-03-08T07:00:53;50.87;;;22.77;;
26080;SDS011;13991;51.174;4.438;2024-03-08T07:03:19;53.00;;;22.47;;
26080;SDS011;13991;51.174;4.438;2024-03-08T07:05:47;59.37;;;22.63;;
26080;SDS011;13991;51.174;4.438;2024-03-08T07:08:13;50.43;;;21.50;;
26080;SDS011;13991;51.174;4.438;2024-03-08T07:10:39;55.93;;;21.23;;
26080;SDS011;13991;51.174;4.438;2024-03-08T07:13:06;54.10;;;21.87;;
26080;SDS011;13991;51.174;4.438;2024-03-08T07:15:33;55.70;;;22.73;;
26080;SDS011;13991;51.174;4.438;2024-03-08T07:18:00;50.67;;;21.93;;
26080;SDS011;13991;51.174;4.438;2024-03-08T07:20:26;56.87;;;23.33;;
26080;SDS011;13991;51.174;4.438;2024-03-08T07:22:53;47.17;;;21.57;;
26080;SDS011;13991;51.174;4.438;2024-03-08T07:27:56;46.63;;;20.77;;
26080;SDS011;13991;51.174;4.438;2024-03-08T07:30:22;47.47;;;20.90;;
26080;SDS011;13991;51.174;4.438;2024-03-08T07:33:07;48.37;;;20.80;;
26080;SDS011;13991;51.174;4.438;2024-03-08T07:35:37;46.23;;;21.00;;
26080;SDS011;13991;51.174;4.438;2024-03-08T07:38:12;52.37;;;22.40;;
26080;SDS011;13991;51.174;4.438;2024-03-08T07:40:38;48.33;;;19.43;;
26080;SDS011;13991;51.174;4.438;2024-03-08T07:43:11;49.97;;;21.87;;
26080;SDS011;13991;51.174;4.438;2024-03-08T07:45:37;43.93;;;20.23;;
26080;SDS011;13991;51.174;4.438;2024-03-08T07:48:04;54.07;;;22.40;;
26080;SDS011;13991;51.174;4.438;2024-03-08T07:50:34;61.00;;;21.13;;
26080;SDS011;13991;51.174;4.438;2024-03-08T07:53:09;52.90;;;21.50;;
26080;SDS011;13991;51.174;4.438;2024-03-08T07:55:35;52.73;;;21.47;;
26080;SDS011;13991;51.174;4.438;2024-03-08T07:58:01;49.23;;;20.53;;
26080;SDS011;13991;51.174;4.438;2024-03-08T08:00:31;58.30;;;20.37;;
26080;SDS011;13991;51.174;4.438;2024-03-08T08:02:57;49.70;;;20.13;;
26080;SDS011;13991;51.174;4.438;2024-03-08T08:05:23;51.83;;;19.60;;
26080;SDS011;13991;51.174;4.438;2024-03-08T08:07:49;51.67;;;19.20;;
26080;SDS011;13991;51.174;4.438;2024-03-08T08:10:17;45.70;;;20.23;;
26080;SDS011;13991;51.174;4.438;2024-03-08T08:12:50;46.43;;;19.93;;
26080;SDS011;13991;51.174;4.438;2024-03-08T08:15:18;46.30;;;20.23;;
26080;SDS011;13991;51.174;4.438;2024-03-08T08:17:44;51.07;;;20.97;;
26080;SDS011;13991;51.174;4.438;2024-03-08T08:20:10;46.20;;;20.10;;
26080;SDS011;13991;51.174;4.438;2024-03-08T08:22:38;46.80;;;18.70;;
26080;SDS011;13991;51.174;4.438;2024-03-08T08:25:10;53.70;;;19.60;;
26080;SDS011;13991;51.174;4.438;2024-03-08T08:27:38;51.27;;;20.83;;
26080;SDS011;13991;51.174;4.438;2024-03-08T08:30:10;47.53;;;20.70;;
26080;SDS011;13991;51.174;4.438;2024-03-08T08:32:36;47.00;;;19.07;;
26080;SDS011;13991;51.174;4.438;2024-03-08T08:35:04;52.73;;;20.37;;
26080;SDS011;13991;51.174;4.438;2024-03-08T08:37:31;47.50;;;20.03;;
26080;SDS011;13991;51.174;4.438;2024-03-08T08:39:57;47.57;;;19.53;;
26080;SDS011;13991;51.174;4.438;2024-03-08T08:42:23;48.43;;;19.93;;
26080;SDS011;13991;51.174;4.438;2024-03-08T08:44:49;46.83;;;18.20;;
26080;SDS011;13991;51.174;4.438;2024-03-08T08:47:16;42.60;;;19.17;;
26080;SDS011;13991;51.174;4.438;2024-03-08T08:49:45;54.50;;;18.83;;
26080;SDS011;13991;51.174;4.438;2024-03-08T08:52:15;51.37;;;19.27;;
26080;SDS011;13991;51.174;4.438;2024-03-08T08:54:42;49.97;;;19.67;;
26080;SDS011;13991;51.174;4.438;2024-03-08T08:57:09;42.63;;;18.73;;
26080;SDS011;13991;51.174;4.438;2024-03-08T08:59:35;44.77;;;18.67;;
26080;SDS011;13991;51.174;4.438;2024-03-08T09:02:01;46.73;;;18.53;;
26080;SDS011;13991;51.174;4.438;2024-03-08T09:04:28;44.20;;;17.57;;
26080;SDS011;13991;51.174;4.438;2024-03-08T09:06:55;42.47;;;17.47;;
26080;SDS011;13991;51.174;4.438;2024-03-08T09:09:22;41.10;;;17.73;;
26080;SDS011;13991;51.174;4.438;2024-03-08T09:11:48;37.73;;;17.43;;
26080;SDS011;13991;51.174;4.438;2024-03-08T09:14:14;41.60;;;17.77;;
26080;SDS011;13991;51.174;4.438;2024-03-08T09:16:40;38.33;;;17.13;;
26080;SDS011;13991;51.174;4.438;2024-03-08T09:19:06;47.00;;;19.37;;
26080;SDS011;13991;51.174;4.438;2024-03-08T09:21:32;44.60;;;18.00;;
26080;SDS011;13991;51.174;4.438;2024-03-08T09:24:00;38.23;;;16.53;;
26080;SDS011;13991;51.174;4.438;2024-03-08T09:26:26;40.50;;;17.20;;
26080;SDS011;13991;51.174;4.438;2024-03-08T09:28:52;40.83;;;17.63;;
26080;SDS011;13991;51.174;4.438;2024-03-08T09:31:19;41.23;;;17.13;;
26080;SDS011;13991;51.174;4.438;2024-03-08T09:33:46;37.10;;;16.17;;
26080;SDS011;13991;51.174;4.438;2024-03-08T09:36:11;40.10;;;17.33;;
26080;SDS011;13991;51.174;4.438;2024-03-08T09:38:39;35.27;;;16.67;;
26080;SDS011;13991;51.174;4.438;2024-03-08T09:41:05;39.00;;;16.93;;
26080;SDS011;13991;51.174;4.438;2024-03-08T09:43:31;37.97;;;17.13;;
26080;SDS011;13991;51.174;4.438;2024-03-08T09:45:57;43.80;;;18.20;;
26080;SDS011;13991;51.174;4.438;2024-03-08T09:48:23;37.07;;;16.40;;
26080;SDS011;13991;51.174;4.438;2024-03-08T09:50:51;40.47;;;17.10;;
26080;SDS011;13991;51.174;4.438;2024-03-08T09:53:16;37.13;;;16.10;;
26080;SDS011;13991;51.174;4.438;2024-03-08T09:55:43;39.57;;;16.60;;
26080;SDS011;13991;51.174;4.438;2024-03-08T09:58:11;41.37;;;16.43;;
26080;SDS011;13991;51.174;4.438;2024-03-08T10:00:52;37.87;;;16.37;;
26080;SDS011;13991;51.174;4.438;2024-03-08T10:03:19;38.33;;;16.47;;
26080;SDS011;13991;51.174;4.438;2024-03-08T10:05:45;36.03;;;16.10;;
26080;SDS011;13991;51.174;4.438;2024-03-08T10:08:11;37.03;;;16.43;;
26080;SDS011;13991;51.174;4.438;2024-03-08T10:10:38;35.33;;;15.33;;
26080;SDS011;13991;51.174;4.438;2024-03-08T10:13:07;39.67;;;16.70;;
26080;SDS011;13991;51.174;4.438;2024-03-08T10:15:34;35.77;;;14.97;;
26080;SDS011;13991;51.174;4.438;2024-03-08T10:18:00;37.47;;;15.10;;
26080;SDS011;13991;51.174;4.438;2024-03-08T10:20:27;36.10;;;16.33;;
26080;SDS011;13991;51.174;4.438;2024-03-08T10:22:59;37.63;;;16.27;;
26080;SDS011;13991;51.174;4.438;2024-03-08T10:25:30;36.60;;;14.70;;
26080;SDS011;13991;51.174;4.438;2024-03-08T10:27:56;38.10;;;16.00;;
26080;SDS011;13991;51.174;4.438;2024-03-08T10:30:22;37.27;;;16.57;;
26080;SDS011;13991;51.174;4.438;2024-03-08T10:32:48;37.60;;;15.23;;
26080;SDS011;13991;51.174;4.438;2024-03-08T10:35:14;33.30;;;14.90;;
26080;SDS011;13991;51.174;4.438;2024-03-08T10:37:48;30.97;;;15.80;;
26080;SDS011;13991;51.174;4.438;2024-03-08T10:40:22;34.63;;;14.77;;
26080;SDS011;13991;51.174;4.438;2024-03-08T10:45:38;36.13;;;14.50;;
26080;SDS011;13991;51.174;4.438;2024-03-08T10:50:57;30.90;;;12.93;;
26080;SDS011;13991;51.174;4.438;2024-03-08T10:53:27;30.80;;;14.23;;
26080;SDS011;13991;51.174;4.438;2024-03-08T10:55:55;36.07;;;14.87;;
26080;SDS011;13991;51.174;4.438;2024-03-08T10:58:22;36.37;;;14.63;;
26080;SDS011;13991;51.174;4.438;2024-03-08T11:00:54;34.80;;;14.97;;
26080;SDS011;13991;51.174;4.438;2024-03-08T11:06:10;34.47;;;15.13;;
26080;SDS011;13991;51.174;4.438;2024-03-08T11:08:41;32.70;;;14.40;;
26080;SDS011;13991;51.174;4.438;2024-03-08T11:11:28;33.40;;;14.23;;
26080;SDS011;13991;51.174;4.438;2024-03-08T11:13:55;29.17;;;14.10;;
26080;SDS011;13991;51.174;4.438;2024-03-08T11:19:00;29.57;;;13.43;;
26080;SDS011;13991;51.174;4.438;2024-03-08T11:21:30;32.10;;;14.53;;
26080;SDS011;13991;51.174;4.438;2024-03-08T11:24:06;28.60;;;13.93;;
26080;SDS011;13991;51.174;4.438;2024-03-08T11:26:37;34.40;;;15.00;;
26080;SDS011;13991;51.174;4.438;2024-03-08T11:34:34;33.77;;;14.67;;
26080;SDS011;13991;51.174;4.438;2024-03-08T11:37:00;40.33;;;14.30;;
26080;SDS011;13991;51.174;4.438;2024-03-08T11:39:28;33.50;;;16.50;;
26080;SDS011;13991;51.174;4.438;2024-03-08T11:41:55;39.67;;;14.47;;
26080;SDS011;13991;51.174;4.438;2024-03-08T11:44:21;30.30;;;13.70;;
26080;SDS011;13991;51.174;4.438;2024-03-08T11:46:52;36.73;;;15.17;;
26080;SDS011;13991;51.174;4.438;2024-03-08T11:49:19;30.33;;;14.77;;
26080;SDS011;13991;51.174;4.438;2024-03-08T11:51:45;34.27;;;14.73;;
26080;SDS011;13991;51.174;4.438;2024-03-08T11:54:12;30.63;;;14.23;;
26080;SDS011;13991;51.174;4.438;2024-03-08T11:56:38;32.13;;;14.63;;
26080;SDS011;13991;51.174;4.438;2024-03-08T11:59:06;32.80;;;14.40;;
26080;SDS011;13991;51.174;4.438;2024-03-08T12:01:37;35.57;;;14.57;;
26080;SDS011;13991;51.174;4.438;2024-03-08T12:04:04;29.67;;;13.77;;
26080;SDS011;13991;51.174;4.438;2024-03-08T12:06:40;37.83;;;15.07;;
26080;SDS011;13991;51.174;4.438;2024-03-08T12:09:12;29.03;;;14.13;;
26080;SDS011;13991;51.174;4.438;2024-03-08T12:11:39;32.37;;;13.93;;
26080;SDS011;13991;51.174;4.438;2024-03-08T12:14:06;28.20;;;13.20;;
26080;SDS011;13991;51.174;4.438;2024-03-08T12:16:32;34.23;;;14.17;;
26080;SDS011;13991;51.174;4.438;2024-03-08T12:18:59;34.33;;;14.73;;
26080;SDS011;13991;51.174;4.438;2024-03-08T12:21:25;36.33;;;14.57;;
26080;SDS011;13991;51.174;4.438;2024-03-08T12:24:04;34.13;;;15.03;;
26080;SDS011;13991;51.174;4.438;2024-03-08T12:26:37;34.77;;;14.70;;
26080;SDS011;13991;51.174;4.438;2024-03-08T12:29:25;28.80;;;11.90;;
26080;SDS011;13991;51.174;4.438;2024-03-08T12:31:54;33.33;;;14.70;;
26080;SDS011;13991;51.174;4.438;2024-03-08T12:34:23;38.93;;;14.90;;
26080;SDS011;13991;51.174;4.438;2024-03-08T12:36:49;33.90;;;14.67;;
26080;SDS011;13991;51.174;4.438;2024-03-08T12:39:20;28.53;;;13.33;;
26080;SDS011;13991;51.174;4.438;2024-03-08T12:41:53;32.33;;;14.00;;
26080;SDS011;13991;51.174;4.438;2024-03-08T12:44:19;34.40;;;14.83;;
26080;SDS011;13991;51.174;4.438;2024-03-08T12:46:50;34.77;;;14.20;;
26080;SDS011;13991;51.174;4.438;2024-03-08T12:49:16;33.83;;;14.80;;
26080;SDS011;13991;51.174;4.438;2024-03-08T12:51:47;30.50;;;14.37;;
26080;SDS011;13991;51.174;4.438;2024-03-08T12:54:13;33.33;;;14.27;;
26080;SDS011;13991;51.174;4.438;2024-03-08T12:56:39;38.13;;;16.63;;
26080;SDS011;13991;51.174;4.438;2024-03-08T12:59:05;41.33;;;15.33;;
26080;SDS011;13991;51.174;4.438;2024-03-08T13:01:35;28.63;;;13.80;;
26080;SDS011;13991;51.174;4.438;2024-03-08T13:04:04;30.63;;;15.03;;
26080;SDS011;13991;51.174;4.438;2024-03-08T13:06:31;39.17;;;15.30;;
26080;SDS011;13991;51.174;4.438;2024-03-08T13:08:58;37.93;;;14.83;;
26080;SDS011;13991;51.174;4.438;2024-03-08T13:11:25;30.87;;;15.00;;
26080;SDS011;13991;51.174;4.438;2024-03-08T13:13:52;32.30;;;14.97;;
26080;SDS011;13991;51.174;4.438;2024-03-08T13:16:18;32.43;;;14.07;;
26080;SDS011;13991;51.174;4.438;2024-03-08T13:18:44;28.47;;;14.20;;
26080;SDS011;13991;51.174;4.438;2024-03-08T13:21:13;28.77;;;14.23;;
26080;SDS011;13991;51.174;4.438;2024-03-08T13:23:40;32.67;;;15.10;;
26080;SDS011;13991;51.174;4.438;2024-03-08T13:26:10;33.67;;;14.03;;
26080;SDS011;13991;51.174;4.438;2024-03-08T13:28:40;32.87;;;14.67;;
26080;SDS011;13991;51.174;4.438;2024-03-08T13:31:11;36.60;;;15.10;;
26080;SDS011;13991;51.174;4.438;2024-03-08T13:33:37;29.63;;;14.43;;
26080;SDS011;13991;51.174;4.438;2024-03-08T13:36:11;44.73;;;15.60;;
26080;SDS011;13991;51.174;4.438;2024-03-08T13:38:44;32.53;;;14.67;;
26080;SDS011;13991;51.174;4.438;2024-03-08T13:41:12;32.10;;;15.47;;
26080;SDS011;13991;51.174;4.438;2024-03-08T13:43:42;34.80;;;15.57;;
26080;SDS011;13991;51.174;4.438;2024-03-08T13:46:11;28.93;;;13.93;;
26080;SDS011;13991;51.174;4.438;2024-03-08T13:48:37;30.17;;;14.73;;
26080;SDS011;13991;51.174;4.438;2024-03-08T13:51:07;33.20;;;15.07;;
26080;SDS011;13991;51.174;4.438;2024-03-08T13:53:35;35.73;;;15.43;;
26080;SDS011;13991;51.174;4.438;2024-03-08T13:56:04;31.13;;;14.93;;
26080;SDS011;13991;51.174;4.438;2024-03-08T13:58:35;32.23;;;14.43;;
26080;SDS011;13991;51.174;4.438;2024-03-08T14:01:01;36.57;;;15.23;;
26080;SDS011;13991;51.174;4.438;2024-03-08T14:03:28;38.90;;;14.03;;
26080;SDS011;13991;51.174;4.438;2024-03-08T14:05:54;34.10;;;15.70;;
26080;SDS011;13991;51.174;4.438;2024-03-08T14:08:20;37.23;;;14.73;;
26080;SDS011;13991;51.174;4.438;2024-03-08T14:10:47;32.23;;;15.20;;
26080;SDS011;13991;51.174;4.438;2024-03-08T14:13:14;30.43;;;14.37;;
26080;SDS011;13991;51.174;4.438;2024-03-08T14:15:43;28.57;;;13.13;;
26080;SDS011;13991;51.174;4.438;2024-03-08T14:18:11;30.17;;;14.23;;
26080;SDS011;13991;51.174;4.438;2024-03-08T14:20:38;33.27;;;14.07;;
26080;SDS011;13991;51.174;4.438;2024-03-08T14:23:04;35.70;;;13.90;;
26080;SDS011;13991;51.174;4.438;2024-03-08T14:25:33;26.93;;;13.00;;
26080;SDS011;13991;51.174;4.438;2024-03-08T14:27:58;37.27;;;14.40;;
26080;SDS011;13991;51.174;4.438;2024-03-08T14:30:29;27.50;;;13.50;;
26080;SDS011;13991;51.174;4.438;2024-03-08T14:33:07;27.57;;;13.37;;
26080;SDS011;13991;51.174;4.438;2024-03-08T14:35:36;27.10;;;13.03;;
26080;SDS011;13991;51.174;4.438;2024-03-08T14:38:05;25.40;;;13.30;;
26080;SDS011;13991;51.174;4.438;2024-03-08T14:40:33;26.30;;;12.57;;
26080;SDS011;13991;51.174;4.438;2024-03-08T14:42:59;29.00;;;11.97;;